createdAt,value
2018-11-04T00:01:08.575Z,100593.32
2018-11-04T00:05:12.142Z,100571.30
2018-11-04T00:09:17.155Z,100578.38
2018-11-04T00:13:21.077Z,100576.61
2018-11-04T00:17:24.548Z,100578.42
2018-11-04T00:21:28.826Z,100575.36
2018-11-04T00:25:32.577Z,100578.48
2018-11-04T00:29:36.371Z,100565.71
2018-11-04T00:33:39.869Z,100566.18
2018-11-04T00:37:43.338Z,100563.56
2018-11-04T00:41:47.144Z,100560.89
2018-11-04T00:45:50.733Z,100554.72
2018-11-04T00:49:54.276Z,100549.89
2018-11-04T00:53:57.737Z,100548.56
2018-11-04T00:58:01.404Z,100545.89
2018-11-04T01:02:04.917Z,100541.48
2018-11-04T01:06:08.751Z,100543.23
2018-11-04T01:10:12.790Z,100539.71
2018-11-04T01:14:16.317Z,100529.98
2018-11-04T01:18:19.874Z,100541.45
2018-11-04T01:22:23.435Z,100531.77
2018-11-04T01:26:27.283Z,100535.31
2018-11-04T01:30:31.048Z,100525.19
2018-11-04T01:34:34.473Z,100519.91
2018-11-04T01:38:38.138Z,100514.17
2018-11-04T01:42:41.993Z,100499.19
2018-11-04T01:46:45.850Z,100496.56
2018-11-04T01:50:49.372Z,100491.27
2018-11-04T01:54:52.976Z,100475.80
2018-11-04T01:58:56.523Z,100470.97
2018-11-04T02:02:59.974Z,100465.66
2018-11-04T02:07:03.617Z,100467.37
2018-11-04T02:11:07.396Z,100472.66
2018-11-04T02:15:12.317Z,100460.70
2018-11-04T02:19:15.886Z,100465.57
2018-11-04T02:23:19.458Z,100459.41
2018-11-04T02:27:23.009Z,100458.94
2018-11-04T02:31:26.543Z,100452.77
2018-11-04T02:35:30.056Z,100458.92
2018-11-04T02:39:33.823Z,100454.99
2018-11-04T02:43:37.314Z,100469.97
2018-11-04T02:47:41.551Z,100459.42
2018-11-04T02:51:45.528Z,100458.13
2018-11-04T02:55:49.062Z,100456.81
2018-11-04T02:59:52.736Z,100449.30
2018-11-04T03:03:56.315Z,100448.91
2018-11-04T03:07:59.931Z,100443.20
2018-11-04T03:12:03.504Z,100445.41
2018-11-04T03:16:07.597Z,100444.55
2018-11-04T03:20:11.570Z,100429.55
2018-11-04T03:24:15.078Z,100439.66
2018-11-04T03:28:19.025Z,100440.13
2018-11-04T03:32:22.725Z,100448.50
2018-11-04T03:36:26.321Z,100449.36
2018-11-04T03:40:30.089Z,100439.25
2018-11-04T03:44:33.581Z,100433.45
2018-11-04T03:48:37.199Z,100431.22
2018-11-04T03:52:41.007Z,100429.42
2018-11-04T03:56:44.505Z,100425.88
2018-11-04T04:00:48.069Z,100418.85
2018-11-04T04:04:51.494Z,100421.95
2018-11-04T04:08:55.255Z,100409.63
2018-11-04T04:12:58.861Z,100410.97
2018-11-04T04:17:02.550Z,100403.93
2018-11-04T04:21:10.141Z,100396.02
2018-11-04T04:25:13.634Z,100400.41
2018-11-04T04:29:17.168Z,100409.24
2018-11-04T04:33:20.696Z,100411.42
2018-11-04T04:37:24.274Z,100408.78
2018-11-04T04:41:27.785Z,100403.50
2018-11-04T04:45:31.404Z,100391.60
2018-11-04T04:49:34.934Z,100396.45
2018-11-04T04:53:38.514Z,100389.84
2018-11-04T04:57:42.088Z,100385.86
2018-11-04T05:01:45.739Z,100381.89
2018-11-04T05:05:49.272Z,100369.13
2018-11-04T05:09:52.802Z,100377.05
2018-11-04T05:13:56.293Z,100375.73
2018-11-04T05:17:59.877Z,100357.22
2018-11-04T05:22:03.402Z,100369.11
2018-11-04T05:26:07.021Z,100374.86
2018-11-04T05:30:11.885Z,100379.27
2018-11-04T05:34:15.587Z,100385.46
2018-11-04T05:38:19.083Z,100379.77
2018-11-04T05:42:22.778Z,100378.44
2018-11-04T05:46:26.250Z,100381.09
2018-11-04T05:50:30.197Z,100379.80
2018-11-04T05:54:33.985Z,100389.95
2018-11-04T05:58:37.584Z,100387.27
2018-11-04T06:02:41.525Z,100378.46
2018-11-04T06:06:45.214Z,100385.54
2018-11-04T06:10:48.798Z,100388.60
2018-11-04T06:14:52.349Z,100392.59
2018-11-04T06:18:55.990Z,100391.25
2018-11-04T06:22:59.623Z,100397.88
2018-11-04T06:27:03.226Z,100405.38
2018-11-04T06:31:06.775Z,100402.73
2018-11-04T06:35:10.598Z,100397.02
2018-11-04T06:39:14.241Z,100397.42
2018-11-04T06:43:17.785Z,100398.77
2018-11-04T06:47:21.375Z,100396.11
2018-11-04T06:51:24.901Z,100393.46
2018-11-04T06:55:28.533Z,100383.30
2018-11-04T06:59:32.185Z,100388.16
2018-11-04T07:03:35.790Z,100382.87
2018-11-04T07:07:39.914Z,100383.34
2018-11-04T07:11:43.413Z,100386.41
2018-11-04T07:15:47.558Z,100384.19
2018-11-04T07:19:51.439Z,100397.43
2018-11-04T07:23:55.231Z,100392.56
2018-11-04T07:27:59.065Z,100389.05
2018-11-04T07:32:03.007Z,100380.68
2018-11-04T07:36:06.915Z,100385.53
2018-11-04T07:40:10.526Z,100392.56
2018-11-04T07:44:14.211Z,100393.47
2018-11-04T07:48:17.871Z,100387.28
2018-11-04T07:52:21.944Z,100385.50
2018-11-04T07:56:25.482Z,100389.92
2018-11-04T08:00:29.017Z,100389.91
2018-11-04T08:04:33.253Z,100383.28
2018-11-04T08:08:36.848Z,100384.62
2018-11-04T08:12:40.637Z,100382.84
2018-11-04T08:16:44.183Z,100382.42
2018-11-04T08:20:47.689Z,100378.00
2018-11-04T08:24:51.357Z,100369.59
2018-11-04T08:28:55.038Z,100371.33
2018-11-04T08:32:58.570Z,100380.16
2018-11-04T08:37:02.259Z,100367.87
2018-11-04T08:41:05.780Z,100370.08
2018-11-04T08:45:10.016Z,100365.66
2018-11-04T08:49:13.739Z,100362.15
2018-11-04T08:53:17.425Z,100351.11
2018-11-04T08:57:21.079Z,100354.66
2018-11-04T09:01:24.679Z,100351.11
2018-11-04T09:05:28.308Z,100341.86
2018-11-04T09:09:32.081Z,100350.69
2018-11-04T09:13:35.812Z,100353.75
2018-11-04T09:17:39.533Z,100354.16
2018-11-04T09:21:43.381Z,100350.19
2018-11-04T09:25:47.025Z,100352.84
2018-11-04T09:29:50.557Z,100364.31
2018-11-04T09:33:55.117Z,100364.32
2018-11-04T09:37:58.866Z,100368.77
2018-11-04T09:42:02.586Z,100361.27
2018-11-04T09:46:06.374Z,100363.45
2018-11-04T09:50:11.250Z,100364.30
2018-11-04T09:54:15.128Z,100358.13
2018-11-04T09:58:18.763Z,100351.94
2018-11-04T10:02:22.472Z,100347.98
2018-11-04T10:06:26.010Z,100348.39
2018-11-04T10:10:29.462Z,100341.36
2018-11-04T10:14:33.195Z,100339.14
2018-11-04T10:18:36.858Z,100333.45
2018-11-04T10:22:41.396Z,100336.52
2018-11-04T10:26:45.053Z,100333.02
2018-11-04T10:30:48.734Z,100328.16
2018-11-04T10:34:52.317Z,100322.02
2018-11-04T10:38:56.102Z,100318.97
2018-11-04T10:43:00.131Z,100315.88
2018-11-04T10:47:05.567Z,100321.62
2018-11-04T10:51:09.299Z,100309.73
2018-11-04T10:55:13.342Z,100305.31
2018-11-04T10:59:17.083Z,100301.34
2018-11-04T11:03:21.329Z,100295.16
2018-11-04T11:07:25.063Z,100288.11
2018-11-04T11:11:29.505Z,100285.47
2018-11-04T11:15:33.419Z,100286.36
2018-11-04T11:19:37.143Z,100292.09
2018-11-04T11:23:41.355Z,100272.28
2018-11-04T11:27:45.063Z,100280.66
2018-11-04T11:31:48.913Z,100269.17
2018-11-04T11:35:52.654Z,100263.02
2018-11-04T11:39:56.662Z,100258.61
2018-11-04T11:44:00.685Z,100259.06
2018-11-04T11:48:04.522Z,100254.20
2018-11-04T11:52:08.581Z,100248.47
2018-11-04T11:56:12.992Z,100255.53
2018-11-04T12:00:16.620Z,100239.22
2018-11-04T12:04:20.729Z,100242.30
2018-11-04T12:08:24.556Z,100243.17
2018-11-04T12:12:28.834Z,100247.55
2018-11-04T12:16:32.460Z,100240.08
2018-11-04T12:20:36.122Z,100240.50
2018-11-04T12:24:39.686Z,100231.20
2018-11-04T12:28:43.395Z,100232.11
2018-11-04T12:32:47.506Z,100221.08
2018-11-04T12:36:51.118Z,100224.17
2018-11-04T12:40:55.136Z,100227.24
2018-11-04T12:44:58.602Z,100217.98
2018-11-04T12:49:02.622Z,100217.52
2018-11-04T12:53:06.099Z,100212.23
2018-11-04T12:57:09.593Z,100209.17
2018-11-04T13:01:13.529Z,100205.66
2018-11-04T13:05:17.265Z,100207.40
2018-11-04T13:09:21.293Z,100199.04
2018-11-04T13:13:24.914Z,100204.75
2018-11-04T13:17:29.090Z,100202.11
2018-11-04T13:21:34.459Z,100204.33
2018-11-04T13:25:38.805Z,100202.97
2018-11-04T13:29:42.606Z,100194.58
2018-11-04T13:33:47.046Z,100187.09
2018-11-04T13:37:51.067Z,100190.60
2018-11-04T13:41:55.421Z,100183.98
2018-11-04T13:45:59.576Z,100178.70
2018-11-04T13:50:03.178Z,100173.40
2018-11-04T13:54:07.141Z,100169.88
2018-11-04T13:58:10.635Z,100169.43
2018-11-04T14:02:14.751Z,100177.36
2018-11-04T14:06:18.828Z,100171.63
2018-11-04T14:10:23.466Z,100173.39
2018-11-04T14:14:27.037Z,100161.49
2018-11-04T14:18:30.936Z,100163.68
2018-11-04T14:22:34.580Z,100158.84
2018-11-04T14:26:38.162Z,100165.00
2018-11-04T14:30:41.647Z,100146.89
2018-11-04T14:34:45.286Z,100156.60
2018-11-04T14:38:49.112Z,100154.83
2018-11-04T14:42:52.800Z,100161.44
2018-11-04T14:46:56.316Z,100150.86
2018-11-04T14:51:00.113Z,100148.67
2018-11-04T14:55:03.593Z,100142.96
2018-11-04T14:59:07.514Z,100146.03
2018-11-04T15:03:11.202Z,100148.25
2018-11-04T15:07:14.801Z,100146.48
2018-11-04T15:11:18.630Z,100140.33
2018-11-04T15:15:22.216Z,100129.75
2018-11-04T15:19:26.198Z,100136.81
2018-11-04T15:23:30.364Z,100136.37
2018-11-04T15:27:34.888Z,100140.78
2018-11-04T15:31:39.198Z,100141.66
2018-11-04T15:35:43.701Z,100147.40
2018-11-04T15:39:47.198Z,100135.94
2018-11-04T15:43:51.070Z,100142.98
2018-11-04T15:47:55.017Z,100146.53
2018-11-04T15:51:58.581Z,100147.85
2018-11-04T15:56:04.192Z,100149.17
2018-11-04T16:00:10.920Z,100146.53
2018-11-04T16:04:14.406Z,100143.43
2018-11-04T16:08:18.663Z,100150.45
2018-11-04T16:12:22.372Z,100153.55
2018-11-04T16:16:26.368Z,100148.67
2018-11-04T16:20:35.088Z,100146.94
2018-11-04T16:24:46.885Z,100145.61
2018-11-04T16:28:51.027Z,100149.13
2018-11-04T16:32:56.760Z,100150.03
2018-11-04T16:37:01.054Z,100150.45
2018-11-04T16:41:04.656Z,100156.20
2018-11-04T16:45:11.666Z,100152.68
2018-11-04T16:49:16.131Z,100160.58
2018-11-04T16:53:19.848Z,100173.85
2018-11-04T16:57:23.339Z,100172.95
2018-11-04T17:01:26.876Z,100168.57
2018-11-04T17:05:30.534Z,100166.83
2018-11-04T17:09:34.627Z,100168.16
2018-11-04T17:13:39.883Z,100173.45
2018-11-04T17:17:43.553Z,100170.39
2018-11-04T17:21:47.539Z,100170.81
2018-11-04T17:25:52.045Z,100181.84
2018-11-04T17:29:55.612Z,100174.36
2018-11-04T17:33:59.790Z,100169.08
2018-11-04T17:38:03.592Z,100167.75
2018-11-04T17:42:07.092Z,100162.05
2018-11-04T17:46:11.042Z,100155.44
2018-11-04T17:50:17.267Z,100159.86
2018-11-04T17:54:21.179Z,100166.92
2018-11-04T17:58:25.076Z,100155.89
2018-11-04T18:02:28.629Z,100156.38
2018-11-04T18:06:34.246Z,100166.92
2018-11-04T18:10:39.289Z,100168.27
2018-11-04T18:14:43.120Z,100166.08
2018-11-04T18:18:46.639Z,100172.23
2018-11-04T18:22:50.173Z,100170.91
2018-11-04T18:26:53.950Z,100170.91
2018-11-04T18:30:57.595Z,100172.27
2018-11-04T18:35:01.065Z,100177.97
2018-11-04T18:39:06.041Z,100177.09
2018-11-04T18:43:10.163Z,100173.13
2018-11-04T18:47:15.958Z,100177.54
2018-11-04T18:51:19.857Z,100179.73
2018-11-04T18:55:23.374Z,100188.12
2018-11-04T18:59:26.955Z,100182.38
2018-11-04T19:03:30.677Z,100173.13
2018-11-04T19:07:34.335Z,100176.65
2018-11-04T19:11:37.876Z,100185.01
2018-11-04T19:15:41.349Z,100181.49
2018-11-04T19:19:45.113Z,100175.30
2018-11-04T19:23:49.069Z,100174.88
2018-11-04T19:27:56.827Z,100172.23
2018-11-04T19:32:08.177Z,100174.45
2018-11-04T19:36:12.261Z,100178.00
2018-11-04T19:40:16.636Z,100176.22
2018-11-04T19:44:24.045Z,100178.39
2018-11-04T19:48:28.284Z,100180.16
2018-11-04T19:52:32.199Z,100187.22
2018-11-04T19:56:36.278Z,100187.67
2018-11-04T20:00:44.411Z,100193.37
2018-11-04T20:04:48.774Z,100199.11
2018-11-04T20:08:57.966Z,100199.09
2018-11-04T20:13:09.595Z,100200.42
2018-11-04T20:17:13.298Z,100198.67
2018-11-04T20:21:17.074Z,100196.48
2018-11-04T20:25:26.541Z,100192.04
2018-11-04T20:29:35.220Z,100198.23
2018-11-04T20:33:38.977Z,100194.70
2018-11-04T20:37:42.957Z,100188.52
2018-11-04T20:41:47.858Z,100192.48
2018-11-04T20:45:52.244Z,100179.27
2018-11-04T20:50:01.149Z,100184.13
2018-11-04T20:54:05.143Z,100186.34
2018-11-04T20:58:09.235Z,100189.39
2018-11-04T21:02:12.889Z,100182.80
2018-11-04T21:06:17.139Z,100179.29
2018-11-04T21:10:24.027Z,100178.81
2018-11-04T21:14:27.822Z,100181.91
2018-11-04T21:18:31.908Z,100179.70
2018-11-04T21:22:35.752Z,100178.39
2018-11-04T21:26:39.299Z,100177.94
2018-11-04T21:30:42.856Z,100180.58
2018-11-04T21:34:48.218Z,100174.84
2018-11-04T21:38:51.746Z,100184.53
2018-11-04T21:42:55.858Z,100177.92
2018-11-04T21:46:59.514Z,100173.07
2018-11-04T21:51:03.541Z,100171.31
2018-11-04T21:55:08.967Z,100174.38
2018-11-04T21:59:12.502Z,100178.33
2018-11-04T22:03:16.793Z,100172.17
2018-11-04T22:07:21.196Z,100173.94
2018-11-04T22:11:24.800Z,100166.89
2018-11-04T22:15:29.601Z,100169.95
2018-11-04T22:19:33.591Z,100164.21
2018-11-04T22:28:05.465Z,100165.52
2018-11-04T22:32:13.602Z,100164.19
2018-11-04T22:36:18.097Z,100159.34
2018-11-04T22:40:23.109Z,100161.53
2018-11-04T22:44:27.422Z,100161.94
2018-11-04T22:48:33.408Z,100161.48
2018-11-04T22:52:37.689Z,100167.60
2018-11-04T22:56:41.758Z,100172.86
2018-11-04T23:00:46.742Z,100167.60
2018-11-04T23:04:56.146Z,100170.22
2018-11-04T23:09:00.102Z,100159.67
2018-11-04T23:13:05.212Z,100162.33
2018-11-04T23:17:09.217Z,100161.88
2018-11-04T23:21:13.065Z,100149.55
2018-11-04T23:25:17.142Z,100159.23
2018-11-04T23:29:21.059Z,100158.80
2018-11-04T23:33:26.301Z,100153.98
2018-11-04T23:37:30.335Z,100158.83
2018-11-04T23:41:34.300Z,100158.42
2018-11-04T23:45:38.178Z,100158.41
2018-11-04T23:49:42.185Z,100152.28
2018-11-04T23:53:46.130Z,100146.55
2018-11-04T23:57:50.139Z,100144.80
